Time;durP1;ratioP1;P1;durP2;ratioP2;P2;SDS_P1;SDS_P2;PMS_P1;PMS_P2;Temp;Humidity;BMP_temperature;BMP_pressure;BME280_temperature;BME280_humidity;BME280_pressure;Samples;Min_cycle;Max_cycle;Signal;HPM_P1;HPM_P2
2021/09/24 00:00:47;;;;;;;11.98;7.38;;;307.20;2304.00;;;;;;5093062;28;20090;-72
2021/09/24 00:03:14;;;;;;;11.73;7.20;;;307.20;2304.00;;;;;;5075293;28;20020;-72
2021/09/24 00:05:41;;;;;;;10.90;7.18;;;282.50;2278.40;;;;;;5093523;28;20028;-73
2021/09/24 00:08:09;;;;;;;10.55;6.80;;;282.50;2278.40;;;;;;5093613;28;20035;-69
2021/09/24 00:10:36;;;;;;;11.15;7.05;;;282.50;2278.40;;;;;;5093347;28;20086;-73
2021/09/24 00:13:02;;;;;;;10.73;7.13;;;282.50;2278.40;;;;;;5075389;28;20478;-69
2021/09/24 00:15:29;;;;;;;12.52;7.13;;;282.50;2278.40;;;;;;5093136;28;20028;-73
2021/09/24 00:17:54;;;;;;;11.55;6.78;;;282.40;2278.40;;;;;;5093284;28;20024;-73
2021/09/24 00:20:20;;;;;;;13.18;7.88;;;282.40;2278.40;;;;;;5074673;28;20119;-73
2021/09/24 00:22:46;;;;;;;12.70;7.55;;;282.40;2278.40;;;;;;5093117;28;20062;-72
2021/09/24 00:25:12;;;;;;;12.73;7.43;;;282.40;2278.40;;;;;;5093475;28;20457;-71
2021/09/24 00:27:39;;;;;;;10.90;7.43;;;282.50;2278.40;;;;;;5092174;28;20039;-72
2021/09/24 00:30:07;;;;;;;11.80;7.47;;;282.40;2278.40;;;;;;5093166;28;20044;-72
2021/09/24 00:32:32;;;;;;;14.00;8.35;;;282.40;2278.40;;;;;;5092942;28;20068;-72
2021/09/24 00:34:58;;;;;;;12.73;7.70;;;282.40;2278.40;;;;;;5093133;28;20024;-73
2021/09/24 00:37:24;;;;;;;13.65;8.43;;;282.40;2278.40;;;;;;5074831;28;20027;-74
2021/09/24 00:39:50;;;;;;;11.85;8.30;;;282.40;2278.40;;;;;;5093245;28;20035;-73
2021/09/24 00:42:16;;;;;;;12.73;8.02;;;282.40;2278.40;;;;;;5093281;28;20020;-73
2021/09/24 00:44:47;;;;;;;13.73;8.05;;;282.40;2278.40;;;;;;5074924;28;20034;-73
2021/09/24 00:47:13;;;;;;;11.95;8.13;;;282.40;2278.40;;;;;;5095481;28;20024;-72
2021/09/24 00:49:39;;;;;;;13.43;8.55;;;282.30;2278.40;;;;;;5096604;28;20538;-72
2021/09/24 00:52:05;;;;;;;14.30;8.63;;;282.30;2278.40;;;;;;5096625;28;20024;-73
2021/09/24 00:54:31;;;;;;;13.63;8.88;;;282.30;2278.40;;;;;;5096813;28;20028;-72
2021/09/24 00:56:57;;;;;;;11.32;8.00;;;282.40;2278.40;;;;;;5096491;28;20119;-70
2021/09/24 00:59:25;;;;;;;15.45;9.05;;;282.30;2278.40;;;;;;5096467;28;20028;-72
2021/09/24 01:01:50;;;;;;;15.57;8.68;;;282.30;2278.40;;;;;;5078341;28;20085;-73
2021/09/24 01:04:16;;;;;;;18.45;9.77;;;282.30;2278.40;;;;;;5096567;28;20404;-73
2021/09/24 01:06:42;;;;;;;15.93;9.85;;;282.30;2278.40;;;;;;5096336;28;20039;-73
2021/09/24 01:09:08;;;;;;;13.65;8.85;;;282.20;2278.40;;;;;;5096582;28;20434;-73
2021/09/24 01:11:36;;;;;;;14.40;8.75;;;282.20;2278.40;;;;;;5096341;28;20032;-73
2021/09/24 01:14:03;;;;;;;14.50;9.25;;;282.10;2278.40;;;;;;5096163;28;20016;-73
2021/09/24 01:16:28;;;;;;;17.17;10.10;;;282.20;2278.40;;;;;;5096406;28;20378;-73
2021/09/24 01:18:54;;;;;;;18.20;10.57;;;282.10;2278.40;;;;;;5096141;28;20020;-72
2021/09/24 01:21:20;;;;;;;17.83;9.70;;;282.10;2278.40;;;;;;5096023;28;20055;-73
2021/09/24 01:23:46;;;;;;;14.10;9.88;;;282.10;2278.40;;;;;;5096037;28;20047;-73
2021/09/24 01:26:12;;;;;;;14.65;9.10;;;282.00;2278.40;;;;;;5096004;28;20363;-73
2021/09/24 01:28:37;;;;;;;15.55;10.18;;;282.10;2278.40;;;;;;5095932;28;20390;-71
2021/09/24 01:31:05;;;;;;;17.38;10.20;;;282.10;2278.40;;;;;;5096034;28;20416;-72
2021/09/24 01:33:31;;;;;;;16.27;10.35;;;282.10;2278.40;;;;;;5095350;28;20135;-71
2021/09/24 01:35:58;;;;;;;17.23;10.52;;;282.00;2278.40;;;;;;5095939;28;20058;-72
2021/09/24 01:38:23;;;;;;;16.65;10.85;;;282.00;2278.40;;;;;;5095701;28;20034;-72
2021/09/24 01:40:50;;;;;;;18.20;9.95;;;282.00;2278.40;;;;;;5095883;28;20023;-73
2021/09/24 01:43:15;;;;;;;18.88;10.68;;;282.00;2278.40;;;;;;5095866;28;20016;-72
2021/09/24 01:45:41;;;;;;;18.85;10.82;;;282.00;2278.40;;;;;;5095417;28;20043;-72
2021/09/24 01:48:07;;;;;;;18.58;11.02;;;281.90;2278.40;;;;;;5095591;28;20339;-71
2021/09/24 01:50:33;;;;;;;16.38;10.70;;;281.90;2278.40;;;;;;5095545;28;20036;-73
2021/09/24 01:52:59;;;;;;;17.55;10.90;;;281.90;2278.40;;;;;;5095280;28;20028;-72
2021/09/24 01:55:24;;;;;;;19.35;11.10;;;281.80;2278.40;;;;;;5095390;28;20028;-71
2021/09/24 01:57:50;;;;;;;18.33;10.88;;;281.80;2278.40;;;;;;5094801;28;20052;-73
2021/09/24 02:00:16;;;;;;;16.67;10.52;;;281.80;2278.40;;;;;;5095406;28;20028;-71
2021/09/24 02:02:42;;;;;;;18.75;10.95;;;281.80;2278.40;;;;;;5095469;28;20117;-72
2021/09/24 02:05:08;;;;;;;17.75;10.75;;;281.70;2278.40;;;;;;5095074;28;20432;-72
2021/09/24 02:07:34;;;;;;;17.85;10.77;;;281.70;2278.40;;;;;;5094980;28;20024;-73
2021/09/24 02:10:01;;;;;;;16.85;10.60;;;281.60;2278.40;;;;;;5094937;28;20024;-72
2021/09/24 02:12:26;;;;;;;19.92;10.63;;;281.70;2278.40;;;;;;5095055;28;20036;-73
2021/09/24 02:14:52;;;;;;;15.95;10.30;;;281.60;2278.40;;;;;;5095124;28;20522;-73
2021/09/24 02:17:18;;;;;;;18.10;10.50;;;281.60;2278.40;;;;;;5094962;28;20024;-73
2021/09/24 02:19:43;;;;;;;17.42;10.50;;;281.60;2278.40;;;;;;5095137;28;20484;-72
2021/09/24 02:22:11;;;;;;;18.30;11.02;;;281.60;2278.40;;;;;;5094587;28;20055;-73
2021/09/24 02:24:37;;;;;;;17.00;10.43;;;281.60;2278.40;;;;;;5094606;28;20032;-72
2021/09/24 02:27:03;;;;;;;15.57;10.48;;;281.60;2278.40;;;;;;5094718;28;20034;-73
2021/09/24 02:29:28;;;;;;;18.85;11.23;;;281.60;2278.40;;;;;;5094529;28;20040;-73
2021/09/24 02:31:54;;;;;;;18.30;11.10;;;281.60;2278.40;;;;;;5094908;28;20079;-73
2021/09/24 02:34:21;;;;;;;18.63;11.50;;;281.70;2278.40;;;;;;5076444;28;20031;-71
2021/09/24 02:36:47;;;;;;;20.65;11.55;;;281.70;2278.40;;;;;;5094589;28;20474;-73
2021/09/24 02:39:13;;;;;;;18.08;10.90;;;281.70;2278.40;;;;;;5094566;28;20016;-73
2021/09/24 02:41:39;;;;;;;20.98;11.73;;;281.60;2278.40;;;;;;5094353;28;20020;-73
2021/09/24 02:44:05;;;;;;;18.55;11.45;;;281.60;2278.40;;;;;;5094512;28;20034;-73
2021/09/24 02:46:31;;;;;;;19.45;11.75;;;281.70;2278.40;;;;;;5094377;28;20028;-73
2021/09/24 02:48:56;;;;;;;20.30;11.10;;;281.70;2278.40;;;;;;5094291;28;20024;-71
2021/09/24 02:51:22;;;;;;;20.75;10.52;;;281.60;2278.40;;;;;;5094381;28;20077;-73
2021/09/24 02:53:48;;;;;;;17.80;10.43;;;281.60;2278.40;;;;;;5094284;28;20031;-71
2021/09/24 02:56:13;;;;;;;17.67;11.00;;;281.60;2278.40;;;;;;5094601;28;20031;-72
2021/09/24 02:58:39;;;;;;;16.20;10.52;;;281.60;2278.40;;;;;;5094475;28;20112;-72
2021/09/24 03:01:05;;;;;;;16.13;10.27;;;281.60;2278.40;;;;;;5094092;28;20115;-73
2021/09/24 03:03:31;;;;;;;17.60;10.70;;;281.60;2278.40;;;;;;5076124;28;20043;-73
2021/09/24 03:05:56;;;;;;;17.13;10.75;;;281.80;2278.40;;;;;;5094044;28;20032;-73
2021/09/24 03:08:22;;;;;;;16.98;10.80;;;281.70;2278.40;;;;;;5093782;28;20474;-73
2021/09/24 03:10:47;;;;;;;17.85;10.80;;;256.90;2252.80;;;;;;5093336;28;20036;-73
2021/09/24 03:13:13;;;;;;;21.85;12.85;;;256.80;2252.80;;;;;;5094216;28;20059;-72
2021/09/24 03:15:39;;;;;;;20.08;12.30;;;256.80;2252.80;;;;;;5094197;28;20024;-73
2021/09/24 03:18:05;;;;;;;17.63;11.80;;;256.80;2252.80;;;;;;5093973;28;20044;-73
2021/09/24 03:20:31;;;;;;;17.92;11.55;;;256.90;2252.80;;;;;;5093724;28;20051;-72
2021/09/24 03:22:57;;;;;;;20.73;11.85;;;256.90;2252.80;;;;;;5094017;28;20032;-73
2021/09/24 03:25:22;;;;;;;17.13;11.48;;;256.90;2252.80;;;;;;5094281;28;20028;-70
2021/09/24 03:27:49;;;;;;;18.73;11.40;;;256.90;2252.80;;;;;;5093838;28;20370;-73
2021/09/24 03:30:15;;;;;;;18.33;11.88;;;256.90;2252.80;;;;;;5075753;28;20035;-73
2021/09/24 03:32:42;;;;;;;19.05;11.45;;;256.90;2252.80;;;;;;5093858;28;20077;-73
2021/09/24 03:35:08;;;;;;;19.17;11.60;;;281.60;2278.40;;;;;;5093669;28;20031;-72
2021/09/24 03:37:34;;;;;;;21.55;12.80;;;281.60;2278.40;;;;;;5093722;28;20024;-71
2021/09/24 03:40:00;;;;;;;21.20;11.90;;;281.60;2278.40;;;;;;5093933;28;20347;-71
2021/09/24 03:42:26;;;;;;;18.88;11.45;;;281.60;2278.40;;;;;;5075873;28;20028;-72
2021/09/24 03:44:52;;;;;;;17.58;10.60;;;281.70;2278.40;;;;;;5093838;28;20064;-73
2021/09/24 03:47:18;;;;;;;16.88;10.40;;;281.70;2278.40;;;;;;5093556;28;20047;-71
2021/09/24 03:49:44;;;;;;;18.02;11.07;;;281.60;2278.40;;;;;;5093689;28;20492;-71
2021/09/24 03:52:10;;;;;;;19.10;10.95;;;281.60;2278.40;;;;;;5093533;28;20478;-70
2021/09/24 03:54:36;;;;;;;16.85;11.20;;;281.60;2278.40;;;;;;5093524;28;20056;-73
2021/09/24 03:57:04;;;;;;;18.00;11.15;;;256.90;2252.80;;;;;;5093548;28;20031;-70
2021/09/24 03:59:29;;;;;;;17.88;10.93;;;256.90;2252.80;;;;;;5093499;28;20027;-73
2021/09/24 04:01:55;;;;;;;21.05;11.35;;;256.80;2252.80;;;;;;5093436;28;20381;-70
2021/09/24 04:04:21;;;;;;;19.23;10.52;;;256.70;2252.80;;;;;;5093407;28;20025;-71
2021/09/24 04:06:47;;;;;;;20.23;11.63;;;256.70;2252.80;;;;;;5093570;28;20031;-71
2021/09/24 04:09:13;;;;;;;18.15;10.95;;;256.70;2252.80;;;;;;5093440;28;20027;-73
2021/09/24 04:11:39;;;;;;;19.90;11.57;;;256.60;2252.80;;;;;;5093192;28;20146;-74
2021/09/24 04:14:08;;;;;;;17.90;11.43;;;256.60;2252.80;;;;;;5093280;28;20024;-70
2021/09/24 04:16:34;;;;;;;19.08;12.18;;;256.50;2252.80;;;;;;5093704;28;20028;-71
2021/09/24 04:19:00;;;;;;;21.63;11.88;;;256.50;2252.80;;;;;;5093390;28;20034;-73
2021/09/24 04:21:26;;;;;;;19.02;11.70;;;256.50;2252.80;;;;;;5094224;28;20036;-73
2021/09/24 04:23:52;;;;;;;18.88;11.57;;;256.50;2252.80;;;;;;5097294;28;20020;-73
2021/09/24 04:26:17;;;;;;;21.15;12.00;;;256.50;2252.80;;;;;;5097182;28;20020;-73
2021/09/24 04:28:43;;;;;;;24.25;13.65;;;256.60;2252.80;;;;;;5097561;28;20036;-73
2021/09/24 04:31:09;;;;;;;25.80;16.00;;;256.60;2252.80;;;;;;5097058;28;20108;-74
2021/09/24 04:33:36;;;;;;;23.80;13.38;;;256.60;2252.80;;;;;;5096808;28;20027;-74
2021/09/24 04:36:01;;;;;;;18.77;11.80;;;256.60;2252.80;;;;;;5096975;28;20024;-73
2021/09/24 04:38:27;;;;;;;18.95;11.60;;;256.50;2252.80;;;;;;5095657;28;20049;-73
2021/09/24 04:40:53;;;;;;;21.05;11.77;;;256.30;2252.80;;;;;;5096455;28;20024;-72
2021/09/24 04:43:18;;;;;;;20.88;12.02;;;256.20;2252.80;;;;;;5096277;28;20022;-72
2021/09/24 04:45:44;;;;;;;19.35;12.18;;;256.10;2252.80;;;;;;5096458;28;20031;-72
2021/09/24 04:48:10;;;;;;;19.13;11.60;;;256.20;2252.80;;;;;;5096466;28;20162;-73
2021/09/24 04:50:36;;;;;;;23.27;13.05;;;256.20;2252.80;;;;;;5096128;28;20131;-72
2021/09/24 04:53:02;;;;;;;25.08;14.52;;;256.10;2252.80;;;;;;5096209;28;20024;-73
2021/09/24 04:55:28;;;;;;;23.70;14.15;;;256.10;2252.80;;;;;;5096174;28;20040;-73
2021/09/24 04:57:54;;;;;;;22.23;14.60;;;256.10;2252.80;;;;;;5093243;28;20105;-72
2021/09/24 05:00:20;;;;;;;24.77;14.70;;;256.20;2252.80;;;;;;5096302;28;20024;-71
2021/09/24 05:02:46;;;;;;;24.33;16.13;;;256.20;2252.80;;;;;;5096130;28;20024;-71
2021/09/24 05:05:12;;;;;;;21.38;12.98;;;256.30;2252.80;;;;;;5096066;28;20377;-70
2021/09/24 05:07:38;;;;;;;24.25;11.52;;;256.30;2252.80;;;;;;5098113;28;20016;-71
2021/09/24 05:10:06;;;;;;;17.70;11.10;;;256.40;2252.80;;;;;;5095757;28;20028;-70
2021/09/24 05:12:32;;;;;;;17.25;11.57;;;256.40;2252.80;;;;;;5095803;28;20028;-72
2021/09/24 05:14:58;;;;;;;18.98;11.38;;;256.40;2252.80;;;;;;5095817;28;20095;-71
2021/09/24 05:17:24;;;;;;;19.58;11.88;;;256.50;2252.80;;;;;;5091416;28;20426;-71
2021/09/24 05:19:50;;;;;;;18.05;12.38;;;256.50;2252.80;;;;;;5095143;28;20378;-71
2021/09/24 05:22:16;;;;;;;19.45;11.57;;;256.60;2252.80;;;;;;5094450;28;20032;-69
2021/09/24 05:24:42;;;;;;;19.55;11.88;;;256.80;2252.80;;;;;;5076743;28;20023;-72
2021/09/24 05:27:08;;;;;;;19.15;11.50;;;256.80;2252.80;;;;;;5076676;28;20028;-72
2021/09/24 05:29:34;;;;;;;16.75;11.73;;;281.60;2278.40;;;;;;5094402;28;20048;-71
2021/09/24 05:32:00;;;;;;;21.23;12.05;;;281.60;2278.40;;;;;;5094895;28;20020;-70
2021/09/24 05:34:26;;;;;;;15.88;10.35;;;281.70;2278.40;;;;;;5093528;28;20366;-72
2021/09/24 05:36:52;;;;;;;17.67;10.85;;;281.90;2278.40;;;;;;5094776;28;20069;-73
2021/09/24 05:39:19;;;;;;;17.42;11.05;;;282.00;2278.40;;;;;;5094542;28;20024;-72
2021/09/24 05:41:45;;;;;;;19.67;12.10;;;282.10;2278.40;;;;;;5075965;28;20466;-72
2021/09/24 05:44:11;;;;;;;17.83;11.48;;;282.20;2278.40;;;;;;5076258;28;20020;-70
2021/09/24 05:46:37;;;;;;;18.42;11.00;;;282.40;2278.40;;;;;;5094162;28;20216;-71
2021/09/24 05:49:03;;;;;;;18.05;11.02;;;282.50;2278.40;;;;;;5075515;28;20086;-71
2021/09/24 05:51:29;;;;;;;16.67;11.57;;;307.30;2304.00;;;;;;5093869;28;20039;-71
2021/09/24 05:53:55;;;;;;;15.23;10.77;;;307.50;2304.00;;;;;;5093688;28;20022;-70
2021/09/24 05:56:21;;;;;;;18.95;11.38;;;307.60;2304.00;;;;;;5093575;28;20408;-71
2021/09/24 05:58:47;;;;;;;16.88;11.15;;;307.80;2304.00;;;;;;5093866;28;20012;-71
2021/09/24 06:01:13;;;;;;;18.48;11.02;;;308.00;2304.00;;;;;;5075426;28;20112;-71
2021/09/24 06:03:39;;;;;;;16.02;10.32;;;308.00;2304.00;;;;;;5094111;28;20034;-71
2021/09/24 06:06:05;;;;;;;15.80;9.68;;;308.10;2304.00;;;;;;5076916;28;20111;-72
2021/09/24 06:08:30;;;;;;;15.30;9.90;;;332.90;2329.60;;;;;;5094723;28;20058;-72
2021/09/24 06:10:56;;;;;;;17.08;9.65;;;333.00;2329.60;;;;;;5095015;28;20381;-70
2021/09/24 06:13:22;;;;;;;16.42;9.80;;;333.10;2329.60;;;;;;5094755;28;20542;-71
2021/09/24 06:15:48;;;;;;;17.00;10.32;;;333.30;2329.60;;;;;;5095365;28;20420;-71
2021/09/24 06:18:15;;;;;;;17.67;10.50;;;333.50;2329.60;;;;;;5094964;28;20026;-71
2021/09/24 06:20:41;;;;;;;18.20;10.32;;;333.60;2329.60;;;;;;5076523;28;20111;-73
2021/09/24 06:23:07;;;;;;;18.63;10.57;;;358.40;2329.60;;;;;;5095078;28;20095;-71
2021/09/24 06:25:33;;;;;;;15.45;9.68;;;358.60;2329.60;;;;;;5094752;28;20569;-70
2021/09/24 06:27:59;;;;;;;16.38;8.85;;;358.80;2329.60;;;;;;5095018;28;20027;-71
2021/09/24 06:30:25;;;;;;;14.75;8.35;;;359.00;2329.60;;;;;;5094918;28;20119;-72
2021/09/24 06:32:52;;;;;;;14.00;8.55;;;384.40;2329.60;;;;;;5094780;28;20036;-71
2021/09/24 06:35:17;;;;;;;12.27;6.72;;;409.90;2355.20;;;;;;5094640;28;20377;-72
2021/09/24 06:37:44;;;;;;;16.15;6.93;;;435.50;2355.20;;;;;;5094165;28;20028;-74
2021/09/24 06:40:11;;;;;;;12.25;7.10;;;461.20;2380.80;;;;;;5094779;28;20092;-74
2021/09/24 06:42:37;;;;;;;10.93;6.90;;;486.90;2201.60;;;;;;5094568;28;20077;-75
2021/09/24 06:45:09;;;;;;;8.85;6.28;;;512.90;1996.80;;;;;;5094064;28;20101;-73
2021/09/24 06:47:35;;;;;;;8.60;6.45;;;563.50;1868.80;;;;;;5076198;28;20035;-73
2021/09/24 06:50:00;;;;;;;9.88;7.45;;;589.40;1689.60;;;;;;5094271;28;20036;-72
2021/09/24 06:52:26;;;;;;;10.18;8.10;;;614.80;1587.20;;;;;;5075847;28;20374;-74
2021/09/24 06:54:54;;;;;;;9.93;7.47;;;665.70;1433.60;;;;;;5093968;28;20020;-73
2021/09/24 06:57:19;;;;;;;9.23;6.75;;;691.40;1280.00;;;;;;5094510;28;20051;-74
2021/09/24 06:59:45;;;;;;;7.45;6.00;;;716.80;1228.80;;;;;;5094314;28;20043;-73
2021/09/24 07:02:11;;;;;;;6.85;5.53;;;717.60;1126.40;;;;;;5094349;28;20020;-73
2021/09/24 07:04:37;;;;;;;6.88;5.00;;;743.00;1100.80;;;;;;5093592;28;20389;-74
2021/09/24 07:07:03;;;;;;;5.70;4.88;;;768.50;1024.00;;;;;;5075806;28;20047;-73
2021/09/24 07:09:28;;;;;;;8.15;4.68;;;793.90;998.40;;;;;;5093383;28;20024;-73
2021/09/24 07:11:54;;;;;;;8.15;5.03;;;768.50;998.40;;;;;;5094018;28;20028;-73
2021/09/24 07:14:20;;;;;;;6.30;4.90;;;742.90;1024.00;;;;;;5094058;28;20497;-73
2021/09/24 07:16:48;;;;;;;7.68;5.43;;;717.40;1075.20;;;;;;5075903;28;20071;-74
2021/09/24 07:19:14;;;;;;;7.82;5.43;;;692.10;1126.40;;;;;;5094055;28;20016;-73
2021/09/24 07:21:40;;;;;;;6.88;4.78;;;691.40;1177.60;;;;;;5093737;28;20047;-73
2021/09/24 07:24:06;;;;;;;7.55;5.38;;;666.20;1228.80;;;;;;5093806;28;20028;-73
2021/09/24 07:26:33;;;;;;;7.03;5.03;;;640.80;1228.80;;;;;;5094235;28;20020;-74
2021/09/24 07:28:59;;;;;;;8.68;5.40;;;615.00;1305.60;;;;;;5075882;28;20032;-72
2021/09/24 07:31:25;;;;;;;7.72;4.63;;;614.40;1382.40;;;;;;5093912;28;20389;-72
2021/09/24 07:33:52;;;;;;;8.43;5.00;;;589.20;1433.60;;;;;;5094168;28;20016;-74
2021/09/24 07:36:19;;;;;;;6.50;4.63;;;564.10;1484.80;;;;;;5075565;28;20110;-73
2021/09/24 07:38:46;;;;;;;8.38;4.90;;;563.50;1536.00;;;;;;5093854;28;20034;-72
2021/09/24 07:41:13;;;;;;;6.85;4.88;;;538.30;1587.20;;;;;;5093876;28;20369;-72
2021/09/24 07:43:39;;;;;;;7.13;5.15;;;538.00;1638.40;;;;;;5093700;28;20069;-72
2021/09/24 07:46:05;;;;;;;7.18;4.90;;;537.60;1689.60;;;;;;5093768;28;20454;-72
2021/09/24 07:48:31;;;;;;;7.30;4.90;;;512.80;1689.60;;;;;;5093517;28;20078;-73
2021/09/24 07:50:57;;;;;;;6.35;4.80;;;537.60;1740.80;;;;;;5075136;28;20052;-73
2021/09/24 07:53:22;;;;;;;6.28;4.82;;;538.10;1689.60;;;;;;5093797;28;20101;-73
2021/09/24 07:55:48;;;;;;;6.65;4.70;;;563.80;1638.40;;;;;;5093755;28;20099;-72
2021/09/24 07:58:14;;;;;;;7.95;4.90;;;614.70;1459.20;;;;;;5097912;28;20028;-74
2021/09/24 08:00:40;;;;;;;6.10;4.60;;;665.90;1382.40;;;;;;5097811;28;20355;-74
2021/09/24 08:03:06;;;;;;;6.30;4.38;;;691.50;1280.00;;;;;;5097735;28;20107;-74
2021/09/24 08:05:32;;;;;;;5.78;4.20;;;717.50;1177.60;;;;;;5079315;28;20024;-75
2021/09/24 08:07:59;;;;;;;6.03;4.18;;;743.00;1152.00;;;;;;5097735;28;20447;-74
2021/09/24 08:10:25;;;;;;;7.10;4.13;;;768.20;1100.80;;;;;;5097519;28;20389;-74
2021/09/24 08:12:54;;;;;;;4.70;3.92;;;768.80;1049.60;;;;;;5097693;28;20055;-75
2021/09/24 08:15:21;;;;;;;5.65;4.00;;;794.40;1024.00;;;;;;5097519;28;20074;-74
2021/09/24 08:17:47;;;;;;;5.75;4.03;;;820.00;972.80;;;;;;5079220;28;20489;-75
2021/09/24 08:20:13;;;;;;;6.47;3.80;;;820.10;947.20;;;;;;5097446;28;20052;-75
2021/09/24 08:22:39;;;;;;;7.80;3.60;;;871.10;870.40;;;;;;5096969;28;20075;-75
2021/09/24 08:25:10;;;;;;;4.38;3.60;;;921.80;844.80;;;;;;5097498;28;20458;-72
2021/09/24 08:27:36;;;;;;;5.03;3.30;;;922.40;819.20;;;;;;5079391;28;20436;-73
2021/09/24 08:30:07;;;;;;;3.88;3.30;;;921.70;819.20;;;;;;5097380;28;20059;-72
2021/09/24 08:32:36;;;;;;;5.30;3.83;;;922.40;793.60;;;;;;5096977;28;20103;-72
2021/09/24 08:35:07;;;;;;;3.97;3.35;;;921.60;844.80;;;;;;5097050;28;20027;-73
2021/09/24 08:37:33;;;;;;;7.05;3.45;;;947.50;793.60;;;;;;5096656;28;20048;-71
2021/09/24 08:39:59;;;;;;;5.43;3.80;;;948.10;742.40;;;;;;5096898;28;20028;-72
2021/09/24 08:42:26;;;;;;;5.72;3.42;;;973.10;742.40;;;;;;5096998;28;20031;-70
2021/09/24 08:44:52;;;;;;;4.38;3.10;;;973.70;716.80;;;;;;5096693;28;20035;-72
2021/09/24 08:47:18;;;;;;;4.93;3.50;;;998.50;716.80;;;;;;5096811;28;20039;-72
2021/09/24 08:49:45;;;;;;;3.67;2.92;;;998.50;742.40;;;;;;5096445;28;20030;-72
2021/09/24 08:52:12;;;;;;;4.07;3.17;;;999.00;691.20;;;;;;5096690;28;20474;-72
2021/09/24 08:54:38;;;;;;;5.95;3.30;;;998.70;716.80;;;;;;5078471;28;20032;-71
2021/09/24 08:57:03;;;;;;;5.60;3.05;;;998.90;691.20;;;;;;5096715;28;20492;-72
2021/09/24 08:59:29;;;;;;;6.07;3.22;;;973.60;716.80;;;;;;5096705;28;20073;-72
2021/09/24 09:01:58;;;;;;;5.05;3.15;;;973.40;716.80;;;;;;5096174;28;20028;-70
2021/09/24 09:04:41;;;;;;;6.43;3.40;;;947.40;768.00;;;;;;5096375;28;20061;-71
2021/09/24 09:07:13;;;;;;;6.90;3.00;;;922.40;768.00;;;;;;5096315;28;20035;-72
2021/09/24 09:09:42;;;;;;;5.05;3.28;;;947.20;768.00;;;;;;5096212;28;20020;-71
2021/09/24 09:12:16;;;;;;;4.55;2.90;;;947.90;742.40;;;;;;5096183;28;20028;-71
2021/09/24 09:14:56;;;;;;;5.80;3.10;;;998.40;742.40;;;;;;5096255;28;20133;-71
2021/09/24 09:17:33;;;;;;;6.07;3.10;;;998.40;742.40;;;;;;5077933;28;20028;-71
2021/09/24 09:20:16;;;;;;;6.05;3.00;;;998.70;716.80;;;;;;5096071;28;20020;-71
2021/09/24 09:22:47;;;;;;;3.45;2.80;;;973.70;691.20;;;;;;5095916;28;20048;-71
2021/09/24 09:25:33;;;;;;;5.70;3.50;;;947.80;768.00;;;;;;5096240;28;20115;-70
2021/09/24 09:28:01;;;;;;;3.80;2.90;;;998.90;716.80;;;;;;5096128;28;20027;-71
2021/09/24 09:30:28;;;;;;;4.22;3.17;;;998.80;691.20;;;;;;5095882;28;20028;-71
2021/09/24 09:33:17;;;;;;;3.20;2.90;;;1049.80;665.60;;;;;;5095904;28;20030;-71
2021/09/24 09:36:01;;;;;;;3.90;2.70;;;1050.40;640.00;;;;;;5095882;28;20023;-72
2021/09/24 09:38:27;;;;;;;6.38;2.70;;;1075.50;588.80;;;;;;5095773;28;20036;-71
2021/09/24 09:41:04;;;;;;;3.70;2.80;;;1075.50;614.40;;;;;;5096057;28;20466;-71
2021/09/24 09:43:36;;;;;;;4.05;2.85;;;1050.40;640.00;;;;;;5095679;28;20369;-70
2021/09/24 09:46:12;;;;;;;3.50;2.65;;;1075.30;588.80;;;;;;5095605;28;20055;-71
2021/09/24 09:48:38;;;;;;;6.43;3.00;;;1075.60;614.40;;;;;;5095607;28;20039;-70
2021/09/24 09:51:04;;;;;;;3.50;3.00;;;1050.20;640.00;;;;;;5095464;28;20123;-71
2021/09/24 09:53:32;;;;;;;4.47;2.65;;;1075.20;614.40;;;;;;5095724;28;20107;-70
2021/09/24 09:56:00;;;;;;;6.05;2.65;;;1075.50;614.40;;;;;;5095652;28;20027;-69
2021/09/24 09:58:31;;;;;;;5.30;2.70;;;1100.90;588.80;;;;;;5095576;28;20020;-71
2021/09/24 10:01:06;;;;;;;3.10;2.70;;;1101.40;563.20;;;;;;5095437;28;20455;-72
2021/09/24 10:03:49;;;;;;;3.85;2.50;;;1101.50;563.20;;;;;;5095990;28;20103;-70
2021/09/24 10:06:32;;;;;;;4.60;2.78;;;1101.60;563.20;;;;;;5095514;28;20103;-70
2021/09/24 10:09:04;;;;;;;;;;;1101.70;563.20;;;;;;5095541;28;20103;-69
2021/09/24 10:11:31;;;;;;;3.78;2.65;;;1126.90;563.20;;;;;;5095053;28;20346;-70
2021/09/24 10:13:59;;;;;;;4.60;2.63;;;1126.50;588.80;;;;;;5095504;28;20024;-71
2021/09/24 10:16:28;;;;;;;7.00;2.78;;;1152.40;537.60;;;;;;5095424;28;20028;-70
2021/09/24 10:18:54;;;;;;;5.03;2.70;;;1101.50;588.80;;;;;;5094461;28;20469;-69
2021/09/24 10:21:21;;;;;;;4.85;2.90;;;1075.40;588.80;;;;;;5094749;28;20067;-71
2021/09/24 10:23:47;;;;;;;6.05;2.97;;;1075.50;588.80;;;;;;5094828;28;20043;-70
2021/09/24 10:26:24;;;;;;;3.63;2.72;;;1050.30;614.40;;;;;;5094985;28;20020;-69
2021/09/24 10:28:56;;;;;;;3.20;2.90;;;1049.80;665.60;;;;;;5094745;28;20500;-70
2021/09/24 10:31:24;;;;;;;3.95;2.72;;;1076.10;588.80;;;;;;5094644;28;20056;-70
2021/09/24 10:34:00;;;;;;;5.75;2.97;;;1076.00;614.40;;;;;;5094813;28;20035;-70
2021/09/24 10:36:38;;;;;;;3.95;2.80;;;1050.20;640.00;;;;;;5076527;28;20024;-70
2021/09/24 10:39:25;;;;;;;6.55;3.00;;;1024.20;665.60;;;;;;5094431;28;20017;-70
2021/09/24 10:42:21;;;;;;;5.07;2.92;;;1024.80;640.00;;;;;;5094235;28;20066;-71
2021/09/24 10:45:08;;;;;;;4.22;3.00;;;1049.70;665.60;;;;;;5094451;28;20024;-71
2021/09/24 10:47:48;;;;;;;4.90;2.70;;;1075.60;614.40;;;;;;5094417;28;20016;-71
2021/09/24 10:50:38;;;;;;;4.90;2.83;;;1101.20;588.80;;;;;;5094488;28;20401;-70
2021/09/24 10:53:19;;;;;;;3.20;2.90;;;1126.40;563.20;;;;;;5094273;28;20024;-70
2021/09/24 10:55:53;;;;;;;3.00;2.70;;;1152.30;512.00;;;;;;5094057;28;20024;-71
2021/09/24 10:58:28;;;;;;;3.88;2.65;;;1152.30;512.00;;;;;;5094406;28;20046;-71
2021/09/24 11:01:12;;;;;;;4.13;2.90;;;1126.90;563.20;;;;;;5094012;28;20028;-70
2021/09/24 11:03:56;;;;;;;4.40;2.85;;;1101.30;563.20;;;;;;5094325;28;20027;-71
2021/09/24 11:06:42;;;;;;;3.22;2.45;;;1152.10;537.60;;;;;;5094273;28;20052;-71
2021/09/24 11:09:13;;;;;;;2.90;2.58;;;1152.90;486.40;;;;;;5093984;28;20028;-71
2021/09/24 11:11:41;;;;;;;4.47;2.70;;;1178.20;460.80;;;;;;5094074;28;20077;-70
2021/09/24 11:14:34;;;;;;;3.42;2.53;;;1178.20;460.80;;;;;;5093923;28;20020;-72
2021/09/24 11:17:02;;;;;;;4.75;3.00;;;1203.50;486.40;;;;;;5093918;28;20032;-71
2021/09/24 11:19:46;;;;;;;2.70;2.50;;;1228.80;460.80;;;;;;5094146;28;20058;-72
2021/09/24 11:22:17;;;;;;;4.47;3.03;;;1203.50;460.80;;;;;;5093908;28;20047;-72
2021/09/24 11:25:06;;;;;;;4.25;3.13;;;1203.30;435.20;;;;;;5075847;28;20016;-71
2021/09/24 11:27:35;;;;;;;4.18;2.80;;;1203.20;460.80;;;;;;5092944;28;20028;-71
2021/09/24 11:30:06;;;;;;;3.00;2.60;;;1203.20;435.20;;;;;;5093006;28;20032;-71
2021/09/24 11:32:36;;;;;;;3.20;2.60;;;1203.50;435.20;;;;;;5093219;28;20343;-71
2021/09/24 11:35:03;;;;;;;4.28;2.60;;;1126.90;537.60;;;;;;5093952;28;20073;-70
2021/09/24 11:37:34;;;;;;;2.78;2.55;;;1152.00;512.00;;;;;;5093772;28;20479;-70
2021/09/24 11:40:12;;;;;;;4.60;2.72;;;1127.30;537.60;;;;;;5093990;28;20378;-71
2021/09/24 11:42:43;;;;;;;4.13;2.42;;;1126.80;537.60;;;;;;5093754;28;20474;-71
2021/09/24 11:45:13;;;;;;;3.65;2.70;;;1152.10;512.00;;;;;;5093819;28;20093;-71
2021/09/24 11:47:43;;;;;;;2.90;2.60;;;1152.40;486.40;;;;;;5093671;28;20457;-70
2021/09/24 11:50:17;;;;;;;6.32;3.20;;;1126.90;512.00;;;;;;5093761;28;20046;-71
2021/09/24 11:52:49;;;;;;;3.97;2.78;;;1127.00;512.00;;;;;;5075460;28;20421;-70
2021/09/24 11:55:26;;;;;;;3.20;2.88;;;1152.00;512.00;;;;;;5093725;28;20405;-70
2021/09/24 11:58:26;;;;;;;4.22;3.08;;;1127.00;512.00;;;;;;5093800;28;20028;-69
2021/09/24 12:00:55;;;;;;;4.70;2.95;;;1100.90;588.80;;;;;;5093634;28;20028;-71
2021/09/24 12:03:33;;;;;;;5.60;2.70;;;1049.80;614.40;;;;;;5075622;28;20438;-70
2021/09/24 12:06:13;;;;;;;4.47;2.95;;;1076.00;537.60;;;;;;5093363;28;20024;-71
2021/09/24 12:08:42;;;;;;;4.10;2.78;;;1101.70;512.00;;;;;;5093442;28;20035;-70
2021/09/24 12:11:12;;;;;;;3.15;2.67;;;1101.40;512.00;;;;;;5093507;28;20381;-70
2021/09/24 12:13:46;;;;;;;3.38;2.97;;;1075.20;563.20;;;;;;5093307;28;20428;-70
2021/09/24 12:16:20;;;;;;;6.70;3.17;;;1075.60;563.20;;;;;;5093610;28;20046;-70